Vendome Street — A8YI6 — position and weather

sailwx.info

Track history (hours):
 
Tides and Currents Weather Stations Pressure Air Temp Water Temp Dewpoint Dewpoint Depression Visibility Wind Speed Wind Dir Waves Ship Positions

Vendome Street

Last reported at 2015-Aug-02 02:31 UTC. Time now 2015-Aug-04 23:55 UTC.
Position N 25°43' W 079°34'.

Length 177 m; draft 8.2 m.

Type: Tanker. MMSI: 636015064.

Date/timePositionNaut miles runAvg speedWind from/ knotsBaromVisibWave heightAir tempDewpointWater temp
2015-Aug-02 02:31N 25°43' W 079°34'1111.0
2015-Aug-02 01:33N 25°53' W 079°30'1111.3
2015-Aug-02 00:33N 26°04' W 079°27'1111.3
2015-Aug-01 23:34N 26°15' W 079°25'2311.3
2015-Aug-01 21:33N 26°38' W 079°23'  
2015-Jul-30 03:27N 37°41' W 070°35'8 7.9
2015-Jul-30 02:24N 37°49' W 070°37'1512.9
2015-Jul-30 01:16N 38°01' W 070°48'1013.6
2015-Jul-30 00:32N 38°08' W 070°57'4314.3
2015-Jul-29 21:33N 38°38' W 071°36'1414.1
2015-Jul-29 20:33N 38°47' W 071°50'1414.4
2015-Jul-29 19:33N 38°56' W 072°03'1514.9
2015-Jul-29 18:33N 39°08' W 072°16'1414.2
2015-Jul-29 17:33N 39°18' W 072°28'1414.2
2015-Jul-29 16:33N 39°29' W 072°40'1414.2
2015-Jul-29 15:33N 39°40' W 072°52'1515.5
2015-Jul-29 14:33N 39°50' W 073°07'1616.2
2015-Jul-29 13:33N 40°02' W 073°21'1110.6
2015-Jul-29 12:33N 40°10' W 073°30'1413.6
2015-Jul-29 11:33N 40°20' W 073°42'1010.3
2015-Jul-29 10:33N 40°28' W 073°51'1110.6
2015-Jul-29 09:33N 40°35' W 074°02'4 3.6
2015-Jul-29 08:31N 40°38' W 074°04'0 0.1
2015-Jul-29 07:31N 40°38' W 074°04'0 0.0
2015-Jul-29 06:31N 40°38' W 074°04'0 0.0
2015-Jul-29 05:31N 40°38' W 074°04'0 0.0
2015-Jul-29 04:31N 40°38' W 074°04'0 0.0
2015-Jul-29 03:31N 40°38' W 074°04'0 0.0
2015-Jul-29 02:31N 40°38' W 074°04'0 0.0
2015-Jul-29 01:31N 40°38' W 074°04'0 0.2
2015-Jul-29 00:31N 40°38' W 074°04'0 0.1
2015-Jul-28 23:31N 40°38' W 074°04'0 0.0
2015-Jul-28 22:31N 40°38' W 074°04'1 1.4
2015-Jul-28 21:33N 40°39' W 074°05'6 5.6
2015-Jul-28 20:33N 40°37' W 074°12'2 0.1
2015-Jul-27 10:29N 40°35' W 074°13'3 3.3
2015-Jul-27 09:33N 40°33' W 074°15'13 6.3
2015-Jul-27 07:33N 40°29' W 073°59'8 8.4
2015-Jul-27 06:33N 40°27' W 073°49'4 4.5
2015-Jul-27 05:33N 40°27' W 073°43'9 8.7
2015-Jul-27 04:33N 40°28' W 073°31'1111.0
2015-Jul-27 03:33N 40°29' W 073°17'1211.7
2015-Jul-27 02:33N 40°30' W 073°02'1212.2
2015-Jul-27 01:33N 40°30' W 072°46'1211.7
2015-Jul-27 00:33N 40°31' W 072°30'1211.7
2015-Jul-26 23:33N 40°31' W 072°15'1211.6
2015-Jul-26 22:33N 40°31' W 071°60'  
Track history (hours):
 
Tides and Currents Weather Stations Pressure Air Temp Water Temp Dewpoint Dewpoint Depression Visibility Wind Speed Wind Dir Waves Ship Positions

Vendome Street

Last reported at 2015-Aug-02 02:31 UTC. Time now 2015-Aug-04 23:55 UTC.
Position N 25°43' W 079°34'.

Length 177 m; draft 8.2 m.

Type: Tanker. MMSI: 636015064.

Date/timePositionNaut miles runAvg speedWind from/ knotsBaromVisibWave heightAir tempDewpointWater temp
2015-Aug-02 02:31N 25°43' W 079°34'1111.0
2015-Aug-02 01:33N 25°53' W 079°30'1111.3
2015-Aug-02 00:33N 26°04' W 079°27'1111.3
2015-Aug-01 23:34N 26°15' W 079°25'2311.3
2015-Aug-01 21:33N 26°38' W 079°23'  
2015-Jul-30 03:27N 37°41' W 070°35'8 7.9
2015-Jul-30 02:24N 37°49' W 070°37'1512.9
2015-Jul-30 01:16N 38°01' W 070°48'1013.6
2015-Jul-30 00:32N 38°08' W 070°57'4314.3
2015-Jul-29 21:33N 38°38' W 071°36'1414.1
2015-Jul-29 20:33N 38°47' W 071°50'1414.4
2015-Jul-29 19:33N 38°56' W 072°03'1514.9
2015-Jul-29 18:33N 39°08' W 072°16'1414.2
2015-Jul-29 17:33N 39°18' W 072°28'1414.2
2015-Jul-29 16:33N 39°29' W 072°40'1414.2
2015-Jul-29 15:33N 39°40' W 072°52'1515.5
2015-Jul-29 14:33N 39°50' W 073°07'1616.2
2015-Jul-29 13:33N 40°02' W 073°21'1110.6
2015-Jul-29 12:33N 40°10' W 073°30'1413.6
2015-Jul-29 11:33N 40°20' W 073°42'1010.3
2015-Jul-29 10:33N 40°28' W 073°51'1110.6
2015-Jul-29 09:33N 40°35' W 074°02'4 3.6
2015-Jul-29 08:31N 40°38' W 074°04'0 0.1
2015-Jul-29 07:31N 40°38' W 074°04'0 0.0
2015-Jul-29 06:31N 40°38' W 074°04'0 0.0
2015-Jul-29 05:31N 40°38' W 074°04'0 0.0
2015-Jul-29 04:31N 40°38' W 074°04'0 0.0
2015-Jul-29 03:31N 40°38' W 074°04'0 0.0
2015-Jul-29 02:31N 40°38' W 074°04'0 0.0
2015-Jul-29 01:31N 40°38' W 074°04'0 0.2
2015-Jul-29 00:31N 40°38' W 074°04'0 0.1
2015-Jul-28 23:31N 40°38' W 074°04'0 0.0
2015-Jul-28 22:31N 40°38' W 074°04'1 1.4
2015-Jul-28 21:33N 40°39' W 074°05'6 5.6
2015-Jul-28 20:33N 40°37' W 074°12'2 0.1
2015-Jul-27 10:29N 40°35' W 074°13'3 3.3
2015-Jul-27 09:33N 40°33' W 074°15'13 6.3
2015-Jul-27 07:33N 40°29' W 073°59'8 8.4
2015-Jul-27 06:33N 40°27' W 073°49'4 4.5
2015-Jul-27 05:33N 40°27' W 073°43'9 8.7
2015-Jul-27 04:33N 40°28' W 073°31'1111.0
2015-Jul-27 03:33N 40°29' W 073°17'1211.7
2015-Jul-27 02:33N 40°30' W 073°02'1212.2
2015-Jul-27 01:33N 40°30' W 072°46'1211.7
2015-Jul-27 00:33N 40°31' W 072°30'1211.7
2015-Jul-26 23:33N 40°31' W 072°15'1211.6
2015-Jul-26 22:33N 40°31' W 071°60'  

Dump ship's entire track history